sensor_id;sensor_type;location;lat;lon;timestamp;pressure;altitude;pressure_sealevel;temperature;humidity
44140;BME280;29803;51.048;4.686;2024-01-10T00:00:14;102938.56;;;-3.83;100.00
44140;BME280;29803;51.048;4.686;2024-01-10T00:02:44;102940.28;;;-3.82;100.00
44140;BME280;29803;51.048;4.686;2024-01-10T00:05:15;102934.25;;;-3.87;100.00
44140;BME280;29803;51.048;4.686;2024-01-10T00:07:45;102929.91;;;-3.88;100.00
44140;BME280;29803;51.048;4.686;2024-01-10T00:10:16;102928.19;;;-3.93;100.00
44140;BME280;29803;51.048;4.686;2024-01-10T00:12:47;102930.00;;;-3.95;100.00
44140;BME280;29803;51.048;4.686;2024-01-10T00:15:18;102923.06;;;-3.99;100.00
44140;BME280;29803;51.048;4.686;2024-01-10T00:17:48;102923.09;;;-4.02;100.00
44140;BME280;29803;51.048;4.686;2024-01-10T00:20:19;102916.22;;;-4.09;100.00
44140;BME280;29803;51.048;4.686;2024-01-10T00:22:49;102909.28;;;-4.13;100.00
44140;BME280;29803;51.048;4.686;2024-01-10T00:25:19;102913.69;;;-4.15;100.00
44140;BME280;29803;51.048;4.686;2024-01-10T00:27:50;102907.56;;;-4.15;100.00
44140;BME280;29803;51.048;4.686;2024-01-10T00:30:21;102911.13;;;-4.20;100.00
44140;BME280;29803;51.048;4.686;2024-01-10T00:32:51;102902.41;;;-4.22;100.00
44140;BME280;29803;51.048;4.686;2024-01-10T00:35:22;102907.69;;;-4.25;100.00
44140;BME280;29803;51.048;4.686;2024-01-10T00:37:52;102907.66;;;-4.23;100.00
44140;BME280;29803;51.048;4.686;2024-01-10T00:40:23;102903.34;;;-4.27;100.00
44140;BME280;29803;51.048;4.686;2024-01-10T00:42:54;102898.16;;;-4.32;100.00
44140;BME280;29803;51.048;4.686;2024-01-10T00:45:24;102891.25;;;-4.36;100.00
44140;BME280;29803;51.048;4.686;2024-01-10T00:47:55;102891.25;;;-4.37;100.00
44140;BME280;29803;51.048;4.686;2024-01-10T00:50:25;102885.19;;;-4.39;100.00
44140;BME280;29803;51.048;4.686;2024-01-10T00:52:56;102886.97;;;-4.43;100.00
44140;BME280;29803;51.048;4.686;2024-01-10T00:55:26;102900.06;;;-4.43;100.00
44140;BME280;29803;51.048;4.686;2024-01-10T00:57:56;102902.75;;;-4.48;100.00
44140;BME280;29803;51.048;4.686;2024-01-10T01:00:27;102897.50;;;-4.48;100.00
44140;BME280;29803;51.048;4.686;2024-01-10T01:02:57;102904.53;;;-4.50;100.00
44140;BME280;29803;51.048;4.686;2024-01-10T01:05:28;102899.28;;;-4.50;100.00
44140;BME280;29803;51.048;4.686;2024-01-10T01:07:58;102900.19;;;-4.51;100.00
44140;BME280;29803;51.048;4.686;2024-01-10T01:10:29;102907.19;;;-4.53;100.00
44140;BME280;29803;51.048;4.686;2024-01-10T01:12:59;102911.59;;;-4.55;100.00
44140;BME280;29803;51.048;4.686;2024-01-10T01:15:30;102899.38;;;-4.57;100.00
44140;BME280;29803;51.048;4.686;2024-01-10T01:18:00;102891.56;;;-4.60;100.00
44140;BME280;29803;51.048;4.686;2024-01-10T01:20:31;102909.09;;;-4.65;100.00
44140;BME280;29803;51.048;4.686;2024-01-10T01:23:01;102908.25;;;-4.69;100.00
44140;BME280;29803;51.048;4.686;2024-01-10T01:25:32;102899.56;;;-4.73;100.00
44140;BME280;29803;51.048;4.686;2024-01-10T01:28:02;102903.09;;;-4.75;100.00
44140;BME280;29803;51.048;4.686;2024-01-10T01:30:33;102903.13;;;-4.78;100.00
44140;BME280;29803;51.048;4.686;2024-01-10T01:33:03;102909.28;;;-4.82;100.00
44140;BME280;29803;51.048;4.686;2024-01-10T01:35:35;102914.56;;;-4.85;100.00
44140;BME280;29803;51.048;4.686;2024-01-10T01:38:05;102919.81;;;-4.85;100.00
44140;BME280;29803;51.048;4.686;2024-01-10T01:40:36;102904.13;;;-4.88;100.00
44140;BME280;29803;51.048;4.686;2024-01-10T01:43:21;102912.91;;;-4.94;100.00
44140;BME280;29803;51.048;4.686;2024-01-10T01:45:53;102900.72;;;-4.98;100.00
44140;BME280;29803;51.048;4.686;2024-01-10T01:48:24;102906.81;;;-4.98;100.00
44140;BME280;29803;51.048;4.686;2024-01-10T01:50:57;102910.34;;;-4.99;100.00
44140;BME280;29803;51.048;4.686;2024-01-10T01:53:30;102903.41;;;-5.01;100.00
44140;BME280;29803;51.048;4.686;2024-01-10T01:56:04;102899.91;;;-5.02;100.00
44140;BME280;29803;51.048;4.686;2024-01-10T01:58:36;102906.88;;;-5.02;100.00
44140;BME280;29803;51.048;4.686;2024-01-10T02:01:09;102906.91;;;-5.04;100.00
44140;BME280;29803;51.048;4.686;2024-01-10T02:03:40;102909.53;;;-5.05;100.00
44140;BME280;29803;51.048;4.686;2024-01-10T02:06:11;102906.94;;;-5.07;100.00
44140;BME280;29803;51.048;4.686;2024-01-10T02:08:42;102909.56;;;-5.08;100.00
44140;BME280;29803;51.048;4.686;2024-01-10T02:11:12;102907.84;;;-5.09;100.00
44140;BME280;29803;51.048;4.686;2024-01-10T02:13:43;102909.56;;;-5.07;100.00
44140;BME280;29803;51.048;4.686;2024-01-10T02:16:14;102911.28;;;-5.06;100.00
44140;BME280;29803;51.048;4.686;2024-01-10T02:18:45;102898.19;;;-5.04;100.00
44140;BME280;29803;51.048;4.686;2024-01-10T02:21:34;102898.16;;;-5.03;100.00
44140;BME280;29803;51.048;4.686;2024-01-10T02:24:15;102885.97;;;-5.05;100.00
44140;BME280;29803;51.048;4.686;2024-01-10T02:26:59;102900.81;;;-5.06;100.00
44140;BME280;29803;51.048;4.686;2024-01-10T02:29:46;102902.56;;;-5.08;100.00
44140;BME280;29803;51.048;4.686;2024-01-10T02:32:32;102898.28;;;-5.12;100.00
44140;BME280;29803;51.048;4.686;2024-01-10T02:35:07;102893.97;;;-5.16;100.00
44140;BME280;29803;51.048;4.686;2024-01-10T02:37:50;102894.88;;;-5.20;100.00
44140;BME280;29803;51.048;4.686;2024-01-10T02:40:21;102886.19;;;-5.22;100.00
44140;BME280;29803;51.048;4.686;2024-01-10T02:42:52;102885.31;;;-5.27;100.00
44140;BME280;29803;51.048;4.686;2024-01-10T02:45:22;102871.38;;;-5.28;100.00
44140;BME280;29803;51.048;4.686;2024-01-10T02:47:53;102883.59;;;-5.28;100.00
44140;BME280;29803;51.048;4.686;2024-01-10T02:50:23;102880.13;;;-5.30;100.00
44140;BME280;29803;51.048;4.686;2024-01-10T02:52:54;102875.78;;;-5.31;100.00
44140;BME280;29803;51.048;4.686;2024-01-10T02:55:24;102884.50;;;-5.31;100.00
44140;BME280;29803;51.048;4.686;2024-01-10T02:57:55;102875.78;;;-5.33;100.00
44140;BME280;29803;51.048;4.686;2024-01-10T03:00:26;102874.91;;;-5.33;100.00
44140;BME280;29803;51.048;4.686;2024-01-10T03:02:56;102881.03;;;-5.33;100.00
44140;BME280;29803;51.048;4.686;2024-01-10T03:05:27;102873.19;;;-5.31;100.00
44140;BME280;29803;51.048;4.686;2024-01-10T03:07:57;102874.94;;;-5.32;100.00
44140;BME280;29803;51.048;4.686;2024-01-10T03:10:28;102867.97;;;-5.34;100.00
44140;BME280;29803;51.048;4.686;2024-01-10T03:12:59;102861.84;;;-5.33;100.00
44140;BME280;29803;51.048;4.686;2024-01-10T03:15:30;102866.22;;;-5.35;100.00
44140;BME280;29803;51.048;4.686;2024-01-10T03:18:01;102861.00;;;-5.35;100.00
44140;BME280;29803;51.048;4.686;2024-01-10T03:20:32;102854.88;;;-5.34;100.00
44140;BME280;29803;51.048;4.686;2024-01-10T03:23:02;102844.41;;;-5.34;100.00
44140;BME280;29803;51.048;4.686;2024-01-10T03:25:33;102847.91;;;-5.35;100.00
44140;BME280;29803;51.048;4.686;2024-01-10T03:28:04;102847.91;;;-5.35;100.00
44140;BME280;29803;51.048;4.686;2024-01-10T03:30:34;102849.66;;;-5.34;100.00
44140;BME280;29803;51.048;4.686;2024-01-10T03:33:05;102847.88;;;-5.32;100.00
44140;BME280;29803;51.048;4.686;2024-01-10T03:35:35;102838.28;;;-5.33;100.00
44140;BME280;29803;51.048;4.686;2024-01-10T03:38:06;102839.19;;;-5.34;100.00
44140;BME280;29803;51.048;4.686;2024-01-10T03:40:37;102833.09;;;-5.38;100.00
44140;BME280;29803;51.048;4.686;2024-01-10T03:43:07;102829.63;;;-5.37;100.00
44140;BME280;29803;51.048;4.686;2024-01-10T03:45:40;102834.91;;;-5.41;100.00
44140;BME280;29803;51.048;4.686;2024-01-10T03:48:10;102841.88;;;-5.43;100.00
44140;BME280;29803;51.048;4.686;2024-01-10T03:50:41;102845.41;;;-5.46;100.00
44140;BME280;29803;51.048;4.686;2024-01-10T03:53:11;102835.75;;;-5.42;100.00
44140;BME280;29803;51.048;4.686;2024-01-10T03:55:42;102824.41;;;-5.40;100.00
44140;BME280;29803;51.048;4.686;2024-01-10T03:58:13;102822.66;;;-5.36;100.00
44140;BME280;29803;51.048;4.686;2024-01-10T04:00:43;102815.69;;;-5.39;100.00
44140;BME280;29803;51.048;4.686;2024-01-10T04:03:14;102824.41;;;-5.40;100.00
44140;BME280;29803;51.048;4.686;2024-01-10T04:05:44;102833.97;;;-5.36;100.00
44140;BME280;29803;51.048;4.686;2024-01-10T04:08:15;102831.31;;;-5.31;100.00
44140;BME280;29803;51.048;4.686;2024-01-10T04:10:45;102827.78;;;-5.29;100.00
44140;BME280;29803;51.048;4.686;2024-01-10T04:13:16;102819.97;;;-5.30;100.00
44140;BME280;29803;51.048;4.686;2024-01-10T04:15:46;102823.41;;;-5.28;100.00
44140;BME280;29803;51.048;4.686;2024-01-10T04:18:17;102812.06;;;-5.27;100.00
44140;BME280;29803;51.048;4.686;2024-01-10T04:20:49;102812.06;;;-5.27;100.00
44140;BME280;29803;51.048;4.686;2024-01-10T04:23:19;102810.28;;;-5.24;100.00
44140;BME280;29803;51.048;4.686;2024-01-10T04:25:50;102821.66;;;-5.26;100.00
44140;BME280;29803;51.048;4.686;2024-01-10T04:28:20;102821.63;;;-5.23;100.00
44140;BME280;29803;51.048;4.686;2024-01-10T04:30:51;102812.00;;;-5.21;100.00
44140;BME280;29803;51.048;4.686;2024-01-10T04:33:21;102826.81;;;-5.20;100.00
44140;BME280;29803;51.048;4.686;2024-01-10T04:35:52;102816.34;;;-5.17;100.00
44140;BME280;29803;51.048;4.686;2024-01-10T04:38:22;102812.81;;;-5.16;100.00
44140;BME280;29803;51.048;4.686;2024-01-10T04:40:56;102812.00;;;-5.21;100.00
44140;BME280;29803;51.048;4.686;2024-01-10T04:43:26;102810.22;;;-5.19;100.00
44140;BME280;29803;51.048;4.686;2024-01-10T04:45:57;102798.94;;;-5.21;100.00
44140;BME280;29803;51.048;4.686;2024-01-10T04:48:27;102805.06;;;-5.24;100.00
44140;BME280;29803;51.048;4.686;2024-01-10T04:50:58;102811.16;;;-5.23;100.00
44140;BME280;29803;51.048;4.686;2024-01-10T04:53:28;102810.31;;;-5.25;100.00
44140;BME280;29803;51.048;4.686;2024-01-10T04:55:59;102812.94;;;-5.25;100.00
44140;BME280;29803;51.048;4.686;2024-01-10T04:58:30;102813.81;;;-5.28;100.00
44140;BME280;29803;51.048;4.686;2024-01-10T05:01:00;102811.16;;;-5.23;100.00
44140;BME280;29803;51.048;4.686;2024-01-10T05:03:31;102804.16;;;-5.21;100.00
44140;BME280;29803;51.048;4.686;2024-01-10T05:06:01;102810.22;;;-5.19;100.00
44140;BME280;29803;51.048;4.686;2024-01-10T05:08:32;102809.34;;;-5.18;100.00
44140;BME280;29803;51.048;4.686;2024-01-10T05:11:02;102809.34;;;-5.18;100.00
44140;BME280;29803;51.048;4.686;2024-01-10T05:13:33;102811.09;;;-5.17;100.00
44140;BME280;29803;51.048;4.686;2024-01-10T05:16:03;102813.75;;;-5.20;100.00
44140;BME280;29803;51.048;4.686;2024-01-10T05:18:34;102801.53;;;-5.21;100.00
44140;BME280;29803;51.048;4.686;2024-01-10T05:21:04;102795.44;;;-5.23;100.00
44140;BME280;29803;51.048;4.686;2024-01-10T05:23:35;102804.16;;;-5.23;100.00
44140;BME280;29803;51.048;4.686;2024-01-10T05:26:07;102802.47;;;-5.25;100.00
44140;BME280;29803;51.048;4.686;2024-01-10T05:28:37;102800.72;;;-5.26;100.00
44140;BME280;29803;51.048;4.686;2024-01-10T05:31:07;102796.34;;;-5.24;100.00
44140;BME280;29803;51.048;4.686;2024-01-10T05:33:38;102807.66;;;-5.22;100.00
44140;BME280;29803;51.048;4.686;2024-01-10T05:36:09;102800.69;;;-5.22;100.00
44140;BME280;29803;51.048;4.686;2024-01-10T05:38:46;102809.41;;;-5.21;100.00
44140;BME280;29803;51.048;4.686;2024-01-10T05:41:16;102803.28;;;-5.20;100.00
44140;BME280;29803;51.048;4.686;2024-01-10T05:43:47;102801.50;;;-5.18;100.00
44140;BME280;29803;51.048;4.686;2024-01-10T05:46:17;102795.41;;;-5.18;100.00
44140;BME280;29803;51.048;4.686;2024-01-10T05:48:50;102804.16;;;-5.23;100.00
44140;BME280;29803;51.048;4.686;2024-01-10T05:51:21;102805.91;;;-5.23;100.00
44140;BME280;29803;51.048;4.686;2024-01-10T05:53:52;102802.44;;;-5.24;100.00
44140;BME280;29803;51.048;4.686;2024-01-10T05:56:22;102803.31;;;-5.22;100.00
44140;BME280;29803;51.048;4.686;2024-01-10T05:58:53;102806.81;;;-5.24;100.00
44140;BME280;29803;51.048;4.686;2024-01-10T06:01:23;102799.88;;;-5.27;100.00
44140;BME280;29803;51.048;4.686;2024-01-10T06:03:54;102799.00;;;-5.29;100.00
44140;BME280;29803;51.048;4.686;2024-01-10T06:06:24;102803.41;;;-5.34;100.00
44140;BME280;29803;51.048;4.686;2024-01-10T06:08:55;102800.81;;;-5.35;100.00
44140;BME280;29803;51.048;4.686;2024-01-10T06:11:26;102794.75;;;-5.39;100.00
44140;BME280;29803;51.048;4.686;2024-01-10T06:13:56;102800.00;;;-5.40;100.00
44140;BME280;29803;51.048;4.686;2024-01-10T06:16:28;102802.69;;;-5.45;100.00
44140;BME280;29803;51.048;4.686;2024-01-10T06:18:58;102802.72;;;-5.50;100.00
44140;BME280;29803;51.048;4.686;2024-01-10T06:21:28;102815.81;;;-5.53;100.00
44140;BME280;29803;51.048;4.686;2024-01-10T06:23:59;102805.34;;;-5.53;100.00
44140;BME280;29803;51.048;4.686;2024-01-10T06:26:29;102806.25;;;-5.52;100.00
44140;BME280;29803;51.048;4.686;2024-01-10T06:29:00;102801.94;;;-5.56;100.00
44140;BME280;29803;51.048;4.686;2024-01-10T06:31:31;102805.44;;;-5.60;100.00
44140;BME280;29803;51.048;4.686;2024-01-10T06:34:01;102805.47;;;-5.63;100.00
44140;BME280;29803;51.048;4.686;2024-01-10T06:36:32;102799.38;;;-5.64;100.00
44140;BME280;29803;51.048;4.686;2024-01-10T06:39:02;102801.09;;;-5.63;100.00
44140;BME280;29803;51.048;4.686;2024-01-10T06:41:32;102807.19;;;-5.61;100.00
44140;BME280;29803;51.048;4.686;2024-01-10T06:44:03;102805.41;;;-5.57;100.00
44140;BME280;29803;51.048;4.686;2024-01-10T06:46:34;102795.81;;;-5.58;100.00
44140;BME280;29803;51.048;4.686;2024-01-10T06:49:05;102790.59;;;-5.57;100.00
44140;BME280;29803;51.048;4.686;2024-01-10T06:51:37;102797.56;;;-5.56;100.00
44140;BME280;29803;51.048;4.686;2024-01-10T06:54:08;102798.41;;;-5.55;100.00
44140;BME280;29803;51.048;4.686;2024-01-10T06:56:39;102791.44;;;-5.55;100.00
44140;BME280;29803;51.048;4.686;2024-01-10T06:59:09;102790.53;;;-5.51;100.00
44140;BME280;29803;51.048;4.686;2024-01-10T07:01:40;102791.41;;;-5.52;100.00
44140;BME280;29803;51.048;4.686;2024-01-10T07:04:11;102787.03;;;-5.50;100.00
44140;BME280;29803;51.048;4.686;2024-01-10T07:06:41;102784.41;;;-5.50;100.00
44140;BME280;29803;51.048;4.686;2024-01-10T07:09:11;102790.53;;;-5.51;100.00
44140;BME280;29803;51.048;4.686;2024-01-10T07:11:42;102795.72;;;-5.48;100.00
44140;BME280;29803;51.048;4.686;2024-01-10T07:14:13;102787.84;;;-5.44;100.00
44140;BME280;29803;51.048;4.686;2024-01-10T07:16:44;102784.38;;;-5.45;100.00
44140;BME280;29803;51.048;4.686;2024-01-10T07:19:16;102791.34;;;-5.45;100.00
44140;BME280;29803;51.048;4.686;2024-01-10T07:21:46;102801.78;;;-5.44;100.00
44140;BME280;29803;51.048;4.686;2024-01-10T07:24:16;102795.66;;;-5.43;100.00
44140;BME280;29803;51.048;4.686;2024-01-10T07:26:47;102801.75;;;-5.42;100.00
44140;BME280;29803;51.048;4.686;2024-01-10T07:29:18;102803.50;;;-5.43;100.00
44140;BME280;29803;51.048;4.686;2024-01-10T07:31:49;102798.28;;;-5.43;100.00
44140;BME280;29803;51.048;4.686;2024-01-10T07:34:22;102807.00;;;-5.42;100.00
44140;BME280;29803;51.048;4.686;2024-01-10T07:36:53;102814.81;;;-5.39;100.00
44140;BME280;29803;51.048;4.686;2024-01-10T07:39:24;102815.66;;;-5.37;100.00
44140;BME280;29803;51.048;4.686;2024-01-10T07:41:54;102813.06;;;-5.39;100.00
44140;BME280;29803;51.048;4.686;2024-01-10T07:44:25;102824.41;;;-5.37;100.00
44140;BME280;29803;51.048;4.686;2024-01-10T07:46:56;102825.25;;;-5.35;100.00
44140;BME280;29803;51.048;4.686;2024-01-10T07:49:27;102825.25;;;-5.38;100.00
44140;BME280;29803;51.048;4.686;2024-01-10T07:51:58;102817.41;;;-5.38;100.00
44140;BME280;29803;51.048;4.686;2024-01-10T07:54:29;102823.50;;;-5.36;100.00
44140;BME280;29803;51.048;4.686;2024-01-10T07:57:02;102827.84;;;-5.35;100.00
44140;BME280;29803;51.048;4.686;2024-01-10T07:59:33;102823.47;;;-5.34;100.00
44140;BME280;29803;51.048;4.686;2024-01-10T08:02:05;102820.84;;;-5.31;100.00
44140;BME280;29803;51.048;4.686;2024-01-10T08:04:36;102812.09;;;-5.29;100.00
44140;BME280;29803;51.048;4.686;2024-01-10T08:07:07;102825.13;;;-5.24;100.00
44140;BME280;29803;51.048;4.686;2024-01-10T08:09:38;102828.59;;;-5.22;100.00
44140;BME280;29803;51.048;4.686;2024-01-10T08:12:10;102830.28;;;-5.16;100.00
44140;BME280;29803;51.048;4.686;2024-01-10T08:14:43;102830.25;;;-5.15;100.00
44140;BME280;29803;51.048;4.686;2024-01-10T08:17:16;102829.28;;;-5.06;100.00
44140;BME280;29803;51.048;4.686;2024-01-10T08:19:47;102821.31;;;-4.97;100.00
44140;BME280;29803;51.048;4.686;2024-01-10T08:22:18;102813.28;;;-4.82;100.00
44140;BME280;29803;51.048;4.686;2024-01-10T08:24:50;102816.56;;;-4.68;100.00
44140;BME280;29803;51.048;4.686;2024-01-10T08:27:21;102812.91;;;-4.54;100.00
44140;BME280;29803;51.048;4.686;2024-01-10T08:29:52;102821.56;;;-4.49;100.00
44140;BME280;29803;51.048;4.686;2024-01-10T08:32:22;102814.38;;;-4.35;100.00
44140;BME280;29803;51.048;4.686;2024-01-10T08:34:53;102812.44;;;-4.24;100.00
44140;BME280;29803;51.048;4.686;2024-01-10T08:37:23;102814.78;;;-4.05;100.00
44140;BME280;29803;51.048;4.686;2024-01-10T08:39:54;102816.03;;;-3.77;100.00
44140;BME280;29803;51.048;4.686;2024-01-10T08:42:25;102818.31;;;-3.57;100.00
44140;BME280;29803;51.048;4.686;2024-01-10T08:44:55;102826.69;;;-3.35;100.00
44140;BME280;29803;51.048;4.686;2024-01-10T08:47:26;102809.78;;;-3.20;100.00
44140;BME280;29803;51.048;4.686;2024-01-10T08:49:56;102816.41;;;-3.01;100.00
44140;BME280;29803;51.048;4.686;2024-01-10T08:52:27;102818.78;;;-2.90;100.00
44140;BME280;29803;51.048;4.686;2024-01-10T08:54:57;102819.00;;;-2.59;100.00
44140;BME280;29803;51.048;4.686;2024-01-10T08:57:28;102815.78;;;-2.33;100.00
44140;BME280;29803;51.048;4.686;2024-01-10T08:59:58;102819.44;;;-2.03;100.00
44140;BME280;29803;51.048;4.686;2024-01-10T09:02:30;102826.09;;;-1.88;100.00
44140;BME280;29803;51.048;4.686;2024-01-10T09:05:00;102833.44;;;-1.65;100.00
44140;BME280;29803;51.048;4.686;2024-01-10T09:07:31;102836.47;;;-1.48;100.00
44140;BME280;29803;51.048;4.686;2024-01-10T09:10:01;102844.25;;;-1.43;100.00
44140;BME280;29803;51.048;4.686;2024-01-10T09:12:32;102838.53;;;-1.26;100.00
44140;BME280;29803;51.048;4.686;2024-01-10T09:15:02;102835.16;;;-1.32;100.00
44140;BME280;29803;51.048;4.686;2024-01-10T09:17:33;102836.75;;;-1.26;100.00
44140;BME280;29803;51.048;4.686;2024-01-10T09:20:04;102841.28;;;-1.29;100.00
44140;BME280;29803;51.048;4.686;2024-01-10T09:22:35;102843.03;;;-1.30;100.00
44140;BME280;29803;51.048;4.686;2024-01-10T09:25:05;102837.84;;;-1.33;100.00
44140;BME280;29803;51.048;4.686;2024-01-10T09:27:36;102834.47;;;-1.38;100.00
44140;BME280;29803;51.048;4.686;2024-01-10T09:30:07;102843.13;;;-1.33;100.00
44140;BME280;29803;51.048;4.686;2024-01-10T09:32:39;102843.00;;;-1.28;100.00
44140;BME280;29803;51.048;4.686;2024-01-10T09:35:10;102838.97;;;-1.11;100.00
44140;BME280;29803;51.048;4.686;2024-01-10T09:37:40;102835.59;;;-1.16;100.00
44140;BME280;29803;51.048;4.686;2024-01-10T09:40:14;102838.13;;;-1.11;100.00
44140;BME280;29803;51.048;4.686;2024-01-10T09:42:49;102837.88;;;-1.02;100.00
44140;BME280;29803;51.048;4.686;2024-01-10T09:45:20;102826.81;;;-0.84;100.00
44140;BME280;29803;51.048;4.686;2024-01-10T09:47:56;102825.84;;;-0.81;100.00
44140;BME280;29803;51.048;4.686;2024-01-10T09:50:27;102833.72;;;-0.80;100.00
44140;BME280;29803;51.048;4.686;2024-01-10T09:53:05;102844.41;;;-0.84;100.00
44140;BME280;29803;51.048;4.686;2024-01-10T09:55:37;102836.34;;;-0.80;100.00
44140;BME280;29803;51.048;4.686;2024-01-10T09:58:08;102837.47;;;-0.88;100.00
44140;BME280;29803;51.048;4.686;2024-01-10T10:00:40;102837.78;;;-0.99;100.00
44140;BME280;29803;51.048;4.686;2024-01-10T10:03:11;102841.97;;;-0.92;100.00
44140;BME280;29803;51.048;4.686;2024-01-10T10:05:43;102824.38;;;-0.91;100.00
44140;BME280;29803;51.048;4.686;2024-01-10T10:08:14;102822.47;;;-0.86;100.00
44140;BME280;29803;51.048;4.686;2024-01-10T10:10:45;102823.06;;;-0.76;100.00
44140;BME280;29803;51.048;4.686;2024-01-10T10:13:25;102830.97;;;-0.76;100.00
44140;BME280;29803;51.048;4.686;2024-01-10T10:15:58;102840.59;;;-0.74;100.00
44140;BME280;29803;51.048;4.686;2024-01-10T10:18:31;102833.16;;;-0.61;100.00
44140;BME280;29803;51.048;4.686;2024-01-10T10:21:13;102836.53;;;-0.56;100.00
44140;BME280;29803;51.048;4.686;2024-01-10T10:23:58;102838.69;;;-0.69;100.00
44140;BME280;29803;51.048;4.686;2024-01-10T10:26:32;102841.94;;;-0.61;100.00
44140;BME280;29803;51.048;4.686;2024-01-10T10:29:03;102849.69;;;-0.55;100.00
44140;BME280;29803;51.048;4.686;2024-01-10T10:31:35;102848.53;;;-0.46;100.00
44140;BME280;29803;51.048;4.686;2024-01-10T10:34:05;102846.44;;;-0.35;100.00
44140;BME280;29803;51.048;4.686;2024-01-10T10:36:36;102844.19;;;-0.19;100.00
44140;BME280;29803;51.048;4.686;2024-01-10T10:39:06;102843.22;;;-0.16;100.00
44140;BME280;29803;51.048;4.686;2024-01-10T10:41:46;102829.53;;;-0.01;100.00
44140;BME280;29803;51.048;4.686;2024-01-10T10:44:18;102832.88;;;0.04;100.00
44140;BME280;29803;51.048;4.686;2024-01-10T10:46:53;102838.16;;;0.04;100.00
44140;BME280;29803;51.048;4.686;2024-01-10T10:49:28;102832.72;;;0.09;100.00
44140;BME280;29803;51.048;4.686;2024-01-10T10:52:01;102833.72;;;0.06;100.00
44140;BME280;29803;51.048;4.686;2024-01-10T10:54:33;102830.59;;;0.20;100.00
44140;BME280;29803;51.048;4.686;2024-01-10T10:57:05;102832.19;;;0.25;100.00
44140;BME280;29803;51.048;4.686;2024-01-10T10:59:36;102826.84;;;0.27;100.00
44140;BME280;29803;51.048;4.686;2024-01-10T11:02:09;102826.72;;;0.30;100.00
44140;BME280;29803;51.048;4.686;2024-01-10T11:04:41;102836.19;;;0.37;100.00
44140;BME280;29803;51.048;4.686;2024-01-10T11:07:12;102838.53;;;0.45;100.00
44140;BME280;29803;51.048;4.686;2024-01-10T11:09:45;102832.16;;;0.52;100.00
44140;BME280;29803;51.048;4.686;2024-01-10T11:12:53;102825.25;;;0.48;100.00
44140;BME280;29803;51.048;4.686;2024-01-10T11:15:47;102819.31;;;0.41;100.00
44140;BME280;29803;51.048;4.686;2024-01-10T11:18:39;102814.63;;;0.49;100.00
44140;BME280;29803;51.048;4.686;2024-01-10T11:24:07;102796.53;;;0.64;100.00
44140;BME280;29803;51.048;4.686;2024-01-10T11:26:39;102799.91;;;0.67;100.00
44140;BME280;29803;51.048;4.686;2024-01-10T11:29:10;102798.03;;;0.71;100.00
44140;BME280;29803;51.048;4.686;2024-01-10T11:31:40;102800.03;;;0.64;100.00
44140;BME280;29803;51.048;4.686;2024-01-10T11:34:11;102787.34;;;0.74;100.00
44140;BME280;29803;51.048;4.686;2024-01-10T11:37:09;102792.63;;;0.74;100.00
44140;BME280;29803;51.048;4.686;2024-01-10T11:39:42;102789.97;;;0.75;100.00
44140;BME280;29803;51.048;4.686;2024-01-10T11:42:22;102784.09;;;0.91;100.00
44140;BME280;29803;51.048;4.686;2024-01-10T11:44:53;102782.00;;;1.00;100.00
44140;BME280;29803;51.048;4.686;2024-01-10T11:47:24;102778.06;;;1.11;100.00
44140;BME280;29803;51.048;4.686;2024-01-10T11:49:58;102784.53;;;1.25;100.00
44140;BME280;29803;51.048;4.686;2024-01-10T11:52:36;102782.81;;;1.24;100.00
44140;BME280;29803;51.048;4.686;2024-01-10T11:55:07;102780.25;;;1.23;100.00
44140;BME280;29803;51.048;4.686;2024-01-10T11:57:38;102775.91;;;1.20;100.00
44140;BME280;29803;51.048;4.686;2024-01-10T12:00:10;102767.03;;;1.23;100.00
44140;BME280;29803;51.048;4.686;2024-01-10T12:02:42;102778.19;;;1.31;100.00
44140;BME280;29803;51.048;4.686;2024-01-10T12:05:15;102768.88;;;1.43;100.00
44140;BME280;29803;51.048;4.686;2024-01-10T12:07:50;102777.25;;;1.32;100.00
44140;BME280;29803;51.048;4.686;2024-01-10T12:10:25;102767.47;;;1.34;100.00
44140;BME280;29803;51.048;4.686;2024-01-10T12:12:56;102762.69;;;1.20;100.00
44140;BME280;29803;51.048;4.686;2024-01-10T12:15:27;102757.72;;;1.13;100.00
44140;BME280;29803;51.048;4.686;2024-01-10T12:17:58;102762.59;;;1.00;100.00
44140;BME280;29803;51.048;4.686;2024-01-10T12:20:28;102762.94;;;1.14;100.00
44140;BME280;29803;51.048;4.686;2024-01-10T12:22:59;102752.59;;;1.08;100.00
44140;BME280;29803;51.048;4.686;2024-01-10T12:25:29;102747.16;;;1.13;100.00
44140;BME280;29803;51.048;4.686;2024-01-10T12:28:02;102747.22;;;1.11;100.00
44140;BME280;29803;51.048;4.686;2024-01-10T12:30:33;102748.63;;;1.20;100.00
44140;BME280;29803;51.048;4.686;2024-01-10T12:33:04;102746.22;;;1.14;100.00
44140;BME280;29803;51.048;4.686;2024-01-10T12:35:34;102749.00;;;1.11;100.00
44140;BME280;29803;51.048;4.686;2024-01-10T12:38:05;102740.06;;;1.13;100.00
44140;BME280;29803;51.048;4.686;2024-01-10T12:40:36;102745.28;;;1.15;100.00
44140;BME280;29803;51.048;4.686;2024-01-10T12:43:07;102744.16;;;1.22;100.00
44140;BME280;29803;51.048;4.686;2024-01-10T12:45:39;102750.97;;;1.27;100.00
44140;BME280;29803;51.048;4.686;2024-01-10T12:48:13;102741.84;;;1.36;100.00
44140;BME280;29803;51.048;4.686;2024-01-10T12:50:47;102735.44;;;1.42;100.00
44140;BME280;29803;51.048;4.686;2024-01-10T12:53:17;102732.16;;;1.35;100.00
44140;BME280;29803;51.048;4.686;2024-01-10T12:55:48;102729.41;;;1.38;100.00
44140;BME280;29803;51.048;4.686;2024-01-10T12:58:18;102736.47;;;1.38;100.00
44140;BME280;29803;51.048;4.686;2024-01-10T13:00:57;102730.56;;;1.31;100.00
44140;BME280;29803;51.048;4.686;2024-01-10T13:03:45;102729.50;;;1.35;100.00
44140;BME280;29803;51.048;4.686;2024-01-10T13:06:24;102729.56;;;1.34;100.00
44140;BME280;29803;51.048;4.686;2024-01-10T13:08:55;102726.81;;;1.37;100.00